sensor_id;sensor_type;location;lat;lon;timestamp;P1;durP1;ratioP1;P2;durP2;ratioP2
3299;SDS011;1662;49.310;8.134;2022-08-03T00:00:38;8.07;;;7.47;;
3299;SDS011;1662;49.310;8.134;2022-08-03T00:03:04;7.30;;;7.10;;
3299;SDS011;1662;49.310;8.134;2022-08-03T00:05:30;7.10;;;6.67;;
3299;SDS011;1662;49.310;8.134;2022-08-03T00:07:57;7.73;;;7.43;;
3299;SDS011;1662;49.310;8.134;2022-08-03T00:10:23;7.40;;;7.10;;
3299;SDS011;1662;49.310;8.134;2022-08-03T00:12:49;8.00;;;7.60;;
3299;SDS011;1662;49.310;8.134;2022-08-03T00:15:15;7.30;;;7.10;;
3299;SDS011;1662;49.310;8.134;2022-08-03T00:17:40;7.50;;;7.10;;
3299;SDS011;1662;49.310;8.134;2022-08-03T00:20:06;7.37;;;7.17;;
3299;SDS011;1662;49.310;8.134;2022-08-03T00:22:33;7.47;;;7.17;;
3299;SDS011;1662;49.310;8.134;2022-08-03T00:25:02;7.13;;;6.93;;
3299;SDS011;1662;49.310;8.134;2022-08-03T00:27:28;7.40;;;7.00;;
3299;SDS011;1662;49.310;8.134;2022-08-03T00:29:56;7.93;;;7.60;;
3299;SDS011;1662;49.310;8.134;2022-08-03T00:32:21;7.33;;;7.03;;
3299;SDS011;1662;49.310;8.134;2022-08-03T00:34:49;7.33;;;7.13;;
3299;SDS011;1662;49.310;8.134;2022-08-03T00:37:17;7.47;;;7.07;;
3299;SDS011;1662;49.310;8.134;2022-08-03T00:39:43;7.33;;;6.77;;
3299;SDS011;1662;49.310;8.134;2022-08-03T00:42:11;7.17;;;6.97;;
3299;SDS011;1662;49.310;8.134;2022-08-03T00:44:41;7.40;;;7.20;;
3299;SDS011;1662;49.310;8.134;2022-08-03T00:47:07;7.13;;;6.93;;
3299;SDS011;1662;49.310;8.134;2022-08-03T00:49:36;7.40;;;7.10;;
3299;SDS011;1662;49.310;8.134;2022-08-03T00:52:04;7.60;;;7.30;;
3299;SDS011;1662;49.310;8.134;2022-08-03T00:54:32;7.50;;;7.30;;
3299;SDS011;1662;49.310;8.134;2022-08-03T00:56:59;7.57;;;7.30;;
3299;SDS011;1662;49.310;8.134;2022-08-03T00:59:25;7.80;;;7.43;;
3299;SDS011;1662;49.310;8.134;2022-08-03T01:01:52;7.73;;;7.43;;
3299;SDS011;1662;49.310;8.134;2022-08-03T01:04:18;7.80;;;7.50;;
3299;SDS011;1662;49.310;8.134;2022-08-03T01:09:45;7.37;;;7.17;;
3299;SDS011;1662;49.310;8.134;2022-08-03T01:12:31;7.27;;;7.07;;
3299;SDS011;1662;49.310;8.134;2022-08-03T01:20:30;7.20;;;6.90;;
3299;SDS011;1662;49.310;8.134;2022-08-03T01:31:10;6.77;;;6.37;;
3299;SDS011;1662;49.310;8.134;2022-08-03T01:33:41;6.87;;;6.67;;
3299;SDS011;1662;49.310;8.134;2022-08-03T01:36:13;6.50;;;6.30;;
3299;SDS011;1662;49.310;8.134;2022-08-03T01:38:44;7.33;;;6.97;;
3299;SDS011;1662;49.310;8.134;2022-08-03T01:41:14;7.47;;;7.00;;
3299;SDS011;1662;49.310;8.134;2022-08-03T01:43:44;7.90;;;7.60;;
3299;SDS011;1662;49.310;8.134;2022-08-03T01:46:14;7.70;;;7.40;;
3299;SDS011;1662;49.310;8.134;2022-08-03T01:48:42;7.77;;;7.47;;
3299;SDS011;1662;49.310;8.134;2022-08-03T01:51:10;7.27;;;6.97;;
3299;SDS011;1662;49.310;8.134;2022-08-03T01:53:38;6.60;;;6.50;;
3299;SDS011;1662;49.310;8.134;2022-08-03T01:56:08;7.47;;;7.17;;
3299;SDS011;1662;49.310;8.134;2022-08-03T01:58:35;7.30;;;7.10;;
3299;SDS011;1662;49.310;8.134;2022-08-03T02:01:03;7.60;;;7.40;;
3299;SDS011;1662;49.310;8.134;2022-08-03T02:03:30;7.90;;;7.40;;
3299;SDS011;1662;49.310;8.134;2022-08-03T02:06:00;7.00;;;6.80;;
3299;SDS011;1662;49.310;8.134;2022-08-03T02:08:26;7.50;;;7.13;;
3299;SDS011;1662;49.310;8.134;2022-08-03T02:10:54;7.80;;;7.50;;
3299;SDS011;1662;49.310;8.134;2022-08-03T02:13:23;7.60;;;7.30;;
3299;SDS011;1662;49.310;8.134;2022-08-03T02:15:51;7.70;;;7.40;;
3299;SDS011;1662;49.310;8.134;2022-08-03T02:18:18;7.47;;;7.23;;
3299;SDS011;1662;49.310;8.134;2022-08-03T02:20:46;7.30;;;7.00;;
3299;SDS011;1662;49.310;8.134;2022-08-03T02:23:14;7.13;;;6.87;;
3299;SDS011;1662;49.310;8.134;2022-08-03T02:25:42;7.90;;;7.50;;
3299;SDS011;1662;49.310;8.134;2022-08-03T02:28:11;7.43;;;7.23;;
3299;SDS011;1662;49.310;8.134;2022-08-03T02:30:44;7.57;;;7.20;;
3299;SDS011;1662;49.310;8.134;2022-08-03T02:33:18;7.50;;;7.20;;
3299;SDS011;1662;49.310;8.134;2022-08-03T02:35:48;7.20;;;7.00;;
3299;SDS011;1662;49.310;8.134;2022-08-03T02:38:17;6.93;;;6.73;;
3299;SDS011;1662;49.310;8.134;2022-08-03T02:40:50;7.70;;;7.40;;
3299;SDS011;1662;49.310;8.134;2022-08-03T02:43:21;7.80;;;7.40;;
3299;SDS011;1662;49.310;8.134;2022-08-03T02:45:49;7.50;;;7.20;;
3299;SDS011;1662;49.310;8.134;2022-08-03T02:48:20;7.73;;;7.10;;
3299;SDS011;1662;49.310;8.134;2022-08-03T02:50:50;7.33;;;6.90;;
3299;SDS011;1662;49.310;8.134;2022-08-03T02:53:18;7.70;;;7.20;;
3299;SDS011;1662;49.310;8.134;2022-08-03T02:55:47;8.00;;;7.40;;
3299;SDS011;1662;49.310;8.134;2022-08-03T02:58:16;7.60;;;7.10;;
3299;SDS011;1662;49.310;8.134;2022-08-03T03:00:45;8.07;;;7.40;;
3299;SDS011;1662;49.310;8.134;2022-08-03T03:03:12;7.00;;;6.70;;
3299;SDS011;1662;49.310;8.134;2022-08-03T03:05:39;7.03;;;6.80;;
3299;SDS011;1662;49.310;8.134;2022-08-03T03:08:06;6.77;;;6.57;;
3299;SDS011;1662;49.310;8.134;2022-08-03T03:10:33;7.50;;;7.20;;
3299;SDS011;1662;49.310;8.134;2022-08-03T03:13:01;7.27;;;7.07;;
3299;SDS011;1662;49.310;8.134;2022-08-03T03:15:27;7.33;;;7.03;;
3299;SDS011;1662;49.310;8.134;2022-08-03T03:17:55;7.47;;;7.07;;
3299;SDS011;1662;49.310;8.134;2022-08-03T03:20:23;8.10;;;7.70;;
3299;SDS011;1662;49.310;8.134;2022-08-03T03:22:49;6.97;;;6.77;;
3299;SDS011;1662;49.310;8.134;2022-08-03T03:25:16;7.80;;;7.40;;
3299;SDS011;1662;49.310;8.134;2022-08-03T03:27:42;7.70;;;7.30;;
3299;SDS011;1662;49.310;8.134;2022-08-03T03:30:12;7.90;;;7.33;;
3299;SDS011;1662;49.310;8.134;2022-08-03T03:32:40;7.17;;;6.97;;
3299;SDS011;1662;49.310;8.134;2022-08-03T03:35:06;7.37;;;7.13;;
3299;SDS011;1662;49.310;8.134;2022-08-03T03:37:33;7.93;;;7.57;;
3299;SDS011;1662;49.310;8.134;2022-08-03T03:39:59;7.43;;;7.03;;
3299;SDS011;1662;49.310;8.134;2022-08-03T03:42:25;8.00;;;7.50;;
3299;SDS011;1662;49.310;8.134;2022-08-03T03:44:50;7.40;;;7.20;;
3299;SDS011;1662;49.310;8.134;2022-08-03T03:47:16;7.87;;;7.57;;
3299;SDS011;1662;49.310;8.134;2022-08-03T03:49:42;8.03;;;7.63;;
3299;SDS011;1662;49.310;8.134;2022-08-03T03:52:09;8.50;;;8.10;;
3299;SDS011;1662;49.310;8.134;2022-08-03T03:54:41;8.07;;;7.77;;
3299;SDS011;1662;49.310;8.134;2022-08-03T03:57:08;7.77;;;7.57;;
3299;SDS011;1662;49.310;8.134;2022-08-03T03:59:41;7.70;;;7.50;;
3299;SDS011;1662;49.310;8.134;2022-08-03T04:02:10;8.00;;;7.70;;
3299;SDS011;1662;49.310;8.134;2022-08-03T04:04:36;14.30;;;8.90;;
3299;SDS011;1662;49.310;8.134;2022-08-03T04:07:25;8.70;;;8.20;;
3299;SDS011;1662;49.310;8.134;2022-08-03T04:10:13;8.33;;;7.67;;
3299;SDS011;1662;49.310;8.134;2022-08-03T04:13:01;8.13;;;7.73;;
3299;SDS011;1662;49.310;8.134;2022-08-03T04:15:33;8.30;;;8.00;;
3299;SDS011;1662;49.310;8.134;2022-08-03T04:18:01;7.80;;;7.50;;
3299;SDS011;1662;49.310;8.134;2022-08-03T04:20:29;8.93;;;8.47;;
3299;SDS011;1662;49.310;8.134;2022-08-03T04:22:58;7.90;;;7.60;;
3299;SDS011;1662;49.310;8.134;2022-08-03T04:25:26;12.70;;;7.70;;
3299;SDS011;1662;49.310;8.134;2022-08-03T04:27:55;7.00;;;6.80;;
3299;SDS011;1662;49.310;8.134;2022-08-03T04:30:25;8.03;;;7.70;;
3299;SDS011;1662;49.310;8.134;2022-08-03T04:32:53;7.83;;;7.43;;
3299;SDS011;1662;49.310;8.134;2022-08-03T04:35:21;8.40;;;7.70;;
3299;SDS011;1662;49.310;8.134;2022-08-03T04:37:50;7.80;;;7.50;;
3299;SDS011;1662;49.310;8.134;2022-08-03T04:40:21;7.80;;;7.40;;
3299;SDS011;1662;49.310;8.134;2022-08-03T04:42:52;7.60;;;7.30;;
3299;SDS011;1662;49.310;8.134;2022-08-03T04:45:19;7.70;;;7.50;;
3299;SDS011;1662;49.310;8.134;2022-08-03T04:47:48;8.13;;;7.80;;
3299;SDS011;1662;49.310;8.134;2022-08-03T04:50:14;6.70;;;6.50;;
3299;SDS011;1662;49.310;8.134;2022-08-03T04:52:41;8.10;;;7.70;;
3299;SDS011;1662;49.310;8.134;2022-08-03T04:55:07;7.70;;;7.30;;
3299;SDS011;1662;49.310;8.134;2022-08-03T04:57:33;7.50;;;7.10;;
3299;SDS011;1662;49.310;8.134;2022-08-03T04:59:59;6.93;;;6.63;;
3299;SDS011;1662;49.310;8.134;2022-08-03T05:02:24;7.83;;;7.50;;
3299;SDS011;1662;49.310;8.134;2022-08-03T05:04:51;7.50;;;7.23;;
3299;SDS011;1662;49.310;8.134;2022-08-03T05:07:17;7.83;;;7.40;;
3299;SDS011;1662;49.310;8.134;2022-08-03T05:09:43;7.63;;;7.30;;
3299;SDS011;1662;49.310;8.134;2022-08-03T05:12:09;8.50;;;7.80;;
3299;SDS011;1662;49.310;8.134;2022-08-03T05:14:35;7.23;;;6.60;;
3299;SDS011;1662;49.310;8.134;2022-08-03T05:17:05;14.30;;;7.80;;
3299;SDS011;1662;49.310;8.134;2022-08-03T05:19:31;10.27;;;8.40;;
3299;SDS011;1662;49.310;8.134;2022-08-03T05:22:26;9.43;;;8.53;;
3299;SDS011;1662;49.310;8.134;2022-08-03T05:24:52;11.47;;;7.40;;
3299;SDS011;1662;49.310;8.134;2022-08-03T05:27:31;8.00;;;7.40;;
3299;SDS011;1662;49.310;8.134;2022-08-03T05:30:00;8.10;;;7.60;;
3299;SDS011;1662;49.310;8.134;2022-08-03T05:32:36;8.30;;;7.90;;
3299;SDS011;1662;49.310;8.134;2022-08-03T05:35:25;7.33;;;7.13;;
3299;SDS011;1662;49.310;8.134;2022-08-03T05:41:29;7.60;;;7.30;;
3299;SDS011;1662;49.310;8.134;2022-08-03T05:44:02;7.10;;;6.80;;
3299;SDS011;1662;49.310;8.134;2022-08-03T05:49:59;6.90;;;6.70;;
3299;SDS011;1662;49.310;8.134;2022-08-03T05:52:46;7.23;;;6.97;;
3299;SDS011;1662;49.310;8.134;2022-08-03T05:55:20;7.30;;;7.10;;
3299;SDS011;1662;49.310;8.134;2022-08-03T05:58:16;7.30;;;7.10;;
3299;SDS011;1662;49.310;8.134;2022-08-03T06:00:52;7.50;;;7.30;;
3299;SDS011;1662;49.310;8.134;2022-08-03T06:03:38;7.73;;;7.47;;
3299;SDS011;1662;49.310;8.134;2022-08-03T06:06:40;8.20;;;7.57;;
3299;SDS011;1662;49.310;8.134;2022-08-03T06:09:07;7.03;;;6.60;;
3299;SDS011;1662;49.310;8.134;2022-08-03T06:11:36;6.80;;;6.60;;
3299;SDS011;1662;49.310;8.134;2022-08-03T06:18:06;8.07;;;7.30;;
3299;SDS011;1662;49.310;8.134;2022-08-03T06:20:37;8.70;;;7.90;;
3299;SDS011;1662;49.310;8.134;2022-08-03T06:23:48;9.33;;;8.43;;
3299;SDS011;1662;49.310;8.134;2022-08-03T06:33:22;7.33;;;6.73;;
3299;SDS011;1662;49.310;8.134;2022-08-03T06:35:50;9.00;;;7.40;;
3299;SDS011;1662;49.310;8.134;2022-08-03T06:38:31;10.47;;;7.13;;
3299;SDS011;1662;49.310;8.134;2022-08-03T06:44:31;7.07;;;6.50;;
3299;SDS011;1662;49.310;8.134;2022-08-03T06:51:05;7.00;;;6.80;;
3299;SDS011;1662;49.310;8.134;2022-08-03T07:47:05;8.10;;;7.90;;
3299;SDS011;1662;49.310;8.134;2022-08-03T07:49:31;7.83;;;7.53;;
3299;SDS011;1662;49.310;8.134;2022-08-03T07:51:59;7.53;;;7.33;;
3299;SDS011;1662;49.310;8.134;2022-08-03T07:54:43;8.13;;;7.83;;
3299;SDS011;1662;49.310;8.134;2022-08-03T07:57:08;8.00;;;7.80;;
3299;SDS011;1662;49.310;8.134;2022-08-03T07:59:34;7.70;;;7.50;;
3299;SDS011;1662;49.310;8.134;2022-08-03T08:02:02;8.00;;;7.70;;
3299;SDS011;1662;49.310;8.134;2022-08-03T08:04:27;7.70;;;7.40;;
3299;SDS011;1662;49.310;8.134;2022-08-03T08:06:54;8.63;;;8.23;;
3299;SDS011;1662;49.310;8.134;2022-08-03T08:09:19;7.93;;;7.50;;
3299;SDS011;1662;49.310;8.134;2022-08-03T08:11:45;7.83;;;7.63;;
3299;SDS011;1662;49.310;8.134;2022-08-03T08:14:10;8.37;;;7.70;;
3299;SDS011;1662;49.310;8.134;2022-08-03T08:16:38;8.23;;;7.53;;
3299;SDS011;1662;49.310;8.134;2022-08-03T08:19:06;8.30;;;7.80;;
3299;SDS011;1662;49.310;8.134;2022-08-03T08:21:32;8.43;;;8.00;;
3299;SDS011;1662;49.310;8.134;2022-08-03T08:23:58;8.90;;;8.53;;
3299;SDS011;1662;49.310;8.134;2022-08-03T08:26:24;8.27;;;7.97;;
3299;SDS011;1662;49.310;8.134;2022-08-03T08:28:49;8.70;;;8.30;;
3299;SDS011;1662;49.310;8.134;2022-08-03T08:31:16;9.30;;;8.63;;
3299;SDS011;1662;49.310;8.134;2022-08-03T08:33:42;8.50;;;8.30;;
3299;SDS011;1662;49.310;8.134;2022-08-03T08:36:08;8.97;;;8.67;;
3299;SDS011;1662;49.310;8.134;2022-08-03T08:38:34;8.20;;;7.90;;
3299;SDS011;1662;49.310;8.134;2022-08-03T08:40:59;8.10;;;7.80;;
3299;SDS011;1662;49.310;8.134;2022-08-03T08:43:26;8.10;;;7.60;;
3299;SDS011;1662;49.310;8.134;2022-08-03T08:45:52;8.40;;;7.90;;
3299;SDS011;1662;49.310;8.134;2022-08-03T08:48:21;8.67;;;8.07;;
3299;SDS011;1662;49.310;8.134;2022-08-03T08:50:51;8.20;;;7.83;;
3299;SDS011;1662;49.310;8.134;2022-08-03T08:53:18;8.67;;;8.27;;
3299;SDS011;1662;49.310;8.134;2022-08-03T08:55:45;7.93;;;7.70;;
3299;SDS011;1662;49.310;8.134;2022-08-03T08:58:12;8.30;;;8.00;;
3299;SDS011;1662;49.310;8.134;2022-08-03T09:00:40;8.10;;;7.87;;
3299;SDS011;1662;49.310;8.134;2022-08-03T09:03:09;9.17;;;8.40;;
3299;SDS011;1662;49.310;8.134;2022-08-03T09:05:38;8.97;;;8.57;;
3299;SDS011;1662;49.310;8.134;2022-08-03T09:08:07;9.30;;;9.00;;
3299;SDS011;1662;49.310;8.134;2022-08-03T09:10:33;8.00;;;7.80;;
3299;SDS011;1662;49.310;8.134;2022-08-03T09:13:01;8.97;;;8.53;;
3299;SDS011;1662;49.310;8.134;2022-08-03T09:15:31;8.90;;;8.60;;
3299;SDS011;1662;49.310;8.134;2022-08-03T09:18:00;8.70;;;8.30;;
3299;SDS011;1662;49.310;8.134;2022-08-03T09:20:28;8.70;;;8.30;;
3299;SDS011;1662;49.310;8.134;2022-08-03T09:22:57;8.20;;;7.90;;
3299;SDS011;1662;49.310;8.134;2022-08-03T09:25:41;8.13;;;7.83;;
3299;SDS011;1662;49.310;8.134;2022-08-03T09:28:11;7.77;;;7.47;;
3299;SDS011;1662;49.310;8.134;2022-08-03T09:30:38;7.80;;;7.60;;
3299;SDS011;1662;49.310;8.134;2022-08-03T09:33:12;7.47;;;7.17;;
3299;SDS011;1662;49.310;8.134;2022-08-03T09:35:46;9.37;;;8.77;;
3299;SDS011;1662;49.310;8.134;2022-08-03T09:40:57;8.03;;;7.83;;
3299;SDS011;1662;49.310;8.134;2022-08-03T09:43:22;8.73;;;8.43;;
3299;SDS011;1662;49.310;8.134;2022-08-03T09:45:49;8.10;;;7.87;;
3299;SDS011;1662;49.310;8.134;2022-08-03T09:50:49;9.73;;;8.93;;
3299;SDS011;1662;49.310;8.134;2022-08-03T09:53:20;8.87;;;8.43;;
3299;SDS011;1662;49.310;8.134;2022-08-03T09:56:04;8.90;;;8.60;;
3299;SDS011;1662;49.310;8.134;2022-08-03T09:58:30;9.20;;;8.80;;
3299;SDS011;1662;49.310;8.134;2022-08-03T10:01:03;9.27;;;8.87;;
3299;SDS011;1662;49.310;8.134;2022-08-03T10:03:37;8.40;;;8.10;;
3299;SDS011;1662;49.310;8.134;2022-08-03T10:06:13;9.30;;;9.00;;
3299;SDS011;1662;49.310;8.134;2022-08-03T10:08:40;9.10;;;8.30;;
3299;SDS011;1662;49.310;8.134;2022-08-03T10:11:06;9.20;;;8.90;;
3299;SDS011;1662;49.310;8.134;2022-08-03T10:13:34;9.70;;;9.00;;
3299;SDS011;1662;49.310;8.134;2022-08-03T10:16:04;9.30;;;9.00;;
3299;SDS011;1662;49.310;8.134;2022-08-03T10:18:31;9.60;;;9.10;;
3299;SDS011;1662;49.310;8.134;2022-08-03T10:21:07;8.90;;;8.70;;
3299;SDS011;1662;49.310;8.134;2022-08-03T10:23:37;9.37;;;8.87;;
3299;SDS011;1662;49.310;8.134;2022-08-03T10:26:06;7.80;;;7.60;;
3299;SDS011;1662;49.310;8.134;2022-08-03T10:28:36;9.67;;;9.30;;
3299;SDS011;1662;49.310;8.134;2022-08-03T10:31:06;9.97;;;9.67;;
3299;SDS011;1662;49.310;8.134;2022-08-03T10:33:36;9.93;;;9.43;;
3299;SDS011;1662;49.310;8.134;2022-08-03T10:36:07;9.47;;;9.10;;
3299;SDS011;1662;49.310;8.134;2022-08-03T10:38:38;8.60;;;8.30;;
3299;SDS011;1662;49.310;8.134;2022-08-03T10:41:10;9.90;;;9.60;;
3299;SDS011;1662;49.310;8.134;2022-08-03T10:43:41;9.60;;;9.30;;
3299;SDS011;1662;49.310;8.134;2022-08-03T10:46:14;9.90;;;9.60;;
3299;SDS011;1662;49.310;8.134;2022-08-03T10:48:43;9.93;;;9.50;;
3299;SDS011;1662;49.310;8.134;2022-08-03T10:51:09;9.37;;;9.17;;
3299;SDS011;1662;49.310;8.134;2022-08-03T10:53:37;9.97;;;9.67;;
3299;SDS011;1662;49.310;8.134;2022-08-03T10:56:04;10.40;;;10.00;;
3299;SDS011;1662;49.310;8.134;2022-08-03T10:58:49;10.03;;;9.60;;
3299;SDS011;1662;49.310;8.134;2022-08-03T11:01:19;10.00;;;9.70;;
3299;SDS011;1662;49.310;8.134;2022-08-03T11:04:20;9.37;;;9.00;;
3299;SDS011;1662;49.310;8.134;2022-08-03T11:06:54;9.60;;;9.30;;
3299;SDS011;1662;49.310;8.134;2022-08-03T11:09:52;9.83;;;9.43;;
3299;SDS011;1662;49.310;8.134;2022-08-03T11:14:48;10.60;;;10.10;;
3299;SDS011;1662;49.310;8.134;2022-08-03T11:17:14;10.27;;;9.90;;
3299;SDS011;1662;49.310;8.134;2022-08-03T11:19:44;10.03;;;9.27;;
3299;SDS011;1662;49.310;8.134;2022-08-03T11:22:11;10.67;;;10.27;;
3299;SDS011;1662;49.310;8.134;2022-08-03T11:29:58;9.30;;;8.67;;
3299;SDS011;1662;49.310;8.134;2022-08-03T11:35:07;10.40;;;9.97;;
3299;SDS011;1662;49.310;8.134;2022-08-03T11:37:36;10.03;;;9.63;;
3299;SDS011;1662;49.310;8.134;2022-08-03T11:41:10;9.77;;;9.27;;
3299;SDS011;1662;49.310;8.134;2022-08-03T11:45:59;8.20;;;8.00;;
3299;SDS011;1662;49.310;8.134;2022-08-03T11:51:03;9.87;;;9.27;;
3299;SDS011;1662;49.310;8.134;2022-08-03T11:53:43;9.50;;;9.10;;
3299;SDS011;1662;49.310;8.134;2022-08-03T11:56:14;9.60;;;9.30;;
3299;SDS011;1662;49.310;8.134;2022-08-03T11:58:46;9.97;;;9.57;;
3299;SDS011;1662;49.310;8.134;2022-08-03T12:01:12;9.70;;;9.40;;
3299;SDS011;1662;49.310;8.134;2022-08-03T12:03:40;9.87;;;9.47;;
3299;SDS011;1662;49.310;8.134;2022-08-03T12:06:10;9.50;;;8.97;;
3299;SDS011;1662;49.310;8.134;2022-08-03T12:08:38;9.17;;;8.87;;
3299;SDS011;1662;49.310;8.134;2022-08-03T12:11:05;9.30;;;9.00;;
3299;SDS011;1662;49.310;8.134;2022-08-03T12:13:39;9.43;;;8.93;;
3299;SDS011;1662;49.310;8.134;2022-08-03T12:16:21;9.37;;;9.07;;
3299;SDS011;1662;49.310;8.134;2022-08-03T12:18:55;9.37;;;9.07;;
3299;SDS011;1662;49.310;8.134;2022-08-03T12:21:25;9.30;;;9.00;;
3299;SDS011;1662;49.310;8.134;2022-08-03T12:23:55;9.73;;;9.43;;
3299;SDS011;1662;49.310;8.134;2022-08-03T12:26:25;9.13;;;8.83;;
3299;SDS011;1662;49.310;8.134;2022-08-03T12:28:51;9.77;;;9.20;;
3299;SDS011;1662;49.310;8.134;2022-08-03T12:31:17;9.77;;;9.37;;
3299;SDS011;1662;49.310;8.134;2022-08-03T12:36:25;9.70;;;9.13;;
3299;SDS011;1662;49.310;8.134;2022-08-03T12:38:56;9.00;;;8.70;;
3299;SDS011;1662;49.310;8.134;2022-08-03T12:41:33;9.60;;;9.30;;
3299;SDS011;1662;49.310;8.134;2022-08-03T12:44:03;8.90;;;8.60;;
3299;SDS011;1662;49.310;8.134;2022-08-03T12:46:34;9.40;;;9.10;;
3299;SDS011;1662;49.310;8.134;2022-08-03T12:54:14;9.00;;;8.80;;
3299;SDS011;1662;49.310;8.134;2022-08-03T12:59:30;9.10;;;8.70;;
3299;SDS011;1662;49.310;8.134;2022-08-03T13:02:19;9.50;;;9.20;;
3299;SDS011;1662;49.310;8.134;2022-08-03T13:04:47;9.30;;;8.80;;
3299;SDS011;1662;49.310;8.134;2022-08-03T13:07:16;9.40;;;9.07;;
3299;SDS011;1662;49.310;8.134;2022-08-03T13:09:52;9.27;;;8.97;;
3299;SDS011;1662;49.310;8.134;2022-08-03T13:12:27;8.93;;;8.70;;
3299;SDS011;1662;49.310;8.134;2022-08-03T13:14:54;8.50;;;8.30;;
3299;SDS011;1662;49.310;8.134;2022-08-03T13:17:22;8.97;;;8.77;;
3299;SDS011;1662;49.310;8.134;2022-08-03T13:19:48;8.67;;;8.47;;
3299;SDS011;1662;49.310;8.134;2022-08-03T13:22:15;9.27;;;9.07;;
3299;SDS011;1662;49.310;8.134;2022-08-03T13:24:44;9.47;;;9.13;;
3299;SDS011;1662;49.310;8.134;2022-08-03T13:27:11;10.50;;;10.00;;
3299;SDS011;1662;49.310;8.134;2022-08-03T13:29:39;9.90;;;9.57;;
3299;SDS011;1662;49.310;8.134;2022-08-03T13:32:07;9.83;;;9.57;;
3299;SDS011;1662;49.310;8.134;2022-08-03T13:34:33;9.40;;;9.10;;
3299;SDS011;1662;49.310;8.134;2022-08-03T13:37:03;9.40;;;9.10;;
3299;SDS011;1662;49.310;8.134;2022-08-03T13:39:32;9.97;;;9.60;;
3299;SDS011;1662;49.310;8.134;2022-08-03T13:41:57;9.73;;;9.30;;
3299;SDS011;1662;49.310;8.134;2022-08-03T13:44:23;9.00;;;8.80;;
3299;SDS011;1662;49.310;8.134;2022-08-03T13:46:49;9.40;;;9.20;;
3299;SDS011;1662;49.310;8.134;2022-08-03T13:49:14;9.40;;;9.20;;
3299;SDS011;1662;49.310;8.134;2022-08-03T13:51:40;9.00;;;8.80;;
3299;SDS011;1662;49.310;8.134;2022-08-03T13:54:08;9.37;;;9.07;;
3299;SDS011;1662;49.310;8.134;2022-08-03T13:56:34;9.43;;;9.03;;
3299;SDS011;1662;49.310;8.134;2022-08-03T13:58:59;11.10;;;9.10;;
3299;SDS011;1662;49.310;8.134;2022-08-03T14:01:25;8.97;;;8.70;;
3299;SDS011;1662;49.310;8.134;2022-08-03T14:03:51;9.17;;;8.97;;
3299;SDS011;1662;49.310;8.134;2022-08-03T14:06:19;8.87;;;8.67;;
3299;SDS011;1662;49.310;8.134;2022-08-03T14:08:47;9.13;;;8.80;;
3299;SDS011;1662;49.310;8.134;2022-08-03T14:11:14;9.67;;;9.37;;
3299;SDS011;1662;49.310;8.134;2022-08-03T14:13:40;10.07;;;9.23;;
3299;SDS011;1662;49.310;8.134;2022-08-03T14:16:06;9.60;;;9.40;;
3299;SDS011;1662;49.310;8.134;2022-08-03T14:18:32;9.77;;;9.57;;
3299;SDS011;1662;49.310;8.134;2022-08-03T14:21:01;9.67;;;9.37;;
3299;SDS011;1662;49.310;8.134;2022-08-03T14:23:28;10.00;;;9.70;;
3299;SDS011;1662;49.310;8.134;2022-08-03T14:25:53;10.47;;;9.87;;
3299;SDS011;1662;49.310;8.134;2022-08-03T14:28:20;10.67;;;10.27;;
3299;SDS011;1662;49.310;8.134;2022-08-03T14:30:46;10.20;;;9.70;;
3299;SDS011;1662;49.310;8.134;2022-08-03T14:33:12;9.90;;;9.60;;
3299;SDS011;1662;49.310;8.134;2022-08-03T14:35:38;9.37;;;9.17;;
3299;SDS011;1662;49.310;8.134;2022-08-03T14:38:08;9.73;;;9.43;;
3299;SDS011;1662;49.310;8.134;2022-08-03T14:40:34;9.43;;;9.13;;
3299;SDS011;1662;49.310;8.134;2022-08-03T14:43:00;9.70;;;9.30;;
3299;SDS011;1662;49.310;8.134;2022-08-03T14:45:26;9.43;;;9.23;;
3299;SDS011;1662;49.310;8.134;2022-08-03T14:47:52;9.80;;;9.60;;
3299;SDS011;1662;49.310;8.134;2022-08-03T14:50:18;10.30;;;9.63;;
3299;SDS011;1662;49.310;8.134;2022-08-03T14:52:43;9.10;;;8.90;;
3299;SDS011;1662;49.310;8.134;2022-08-03T14:55:09;9.73;;;9.37;;
3299;SDS011;1662;49.310;8.134;2022-08-03T14:57:34;9.67;;;9.27;;
3299;SDS011;1662;49.310;8.134;2022-08-03T15:00:00;9.40;;;9.20;;
3299;SDS011;1662;49.310;8.134;2022-08-03T15:02:26;9.00;;;8.70;;
3299;SDS011;1662;49.310;8.134;2022-08-03T15:04:54;8.90;;;8.70;;
3299;SDS011;1662;49.310;8.134;2022-08-03T15:07:20;9.50;;;9.20;;
3299;SDS011;1662;49.310;8.134;2022-08-03T15:09:45;9.83;;;9.43;;
3299;SDS011;1662;49.310;8.134;2022-08-03T15:12:11;9.50;;;9.20;;
3299;SDS011;1662;49.310;8.134;2022-08-03T15:14:36;8.80;;;8.60;;
3299;SDS011;1662;49.310;8.134;2022-08-03T15:17:02;9.23;;;9.00;;
3299;SDS011;1662;49.310;8.134;2022-08-03T15:19:30;9.40;;;9.00;;
3299;SDS011;1662;49.310;8.134;2022-08-03T15:21:56;9.70;;;9.40;;
3299;SDS011;1662;49.310;8.134;2022-08-03T15:24:22;9.20;;;9.00;;
3299;SDS011;1662;49.310;8.134;2022-08-03T15:26:47;8.87;;;8.57;;
3299;SDS011;1662;49.310;8.134;2022-08-03T15:29:14;8.83;;;8.63;;
3299;SDS011;1662;49.310;8.134;2022-08-03T15:31:40;9.20;;;8.90;;
3299;SDS011;1662;49.310;8.134;2022-08-03T15:34:05;10.13;;;9.70;;
3299;SDS011;1662;49.310;8.134;2022-08-03T15:36:32;9.20;;;9.00;;
3299;SDS011;1662;49.310;8.134;2022-08-03T15:38:58;9.03;;;8.70;;
3299;SDS011;1662;49.310;8.134;2022-08-03T15:41:23;9.40;;;9.20;;
3299;SDS011;1662;49.310;8.134;2022-08-03T15:43:49;9.83;;;9.37;;
3299;SDS011;1662;49.310;8.134;2022-08-03T15:46:16;9.93;;;9.63;;
3299;SDS011;1662;49.310;8.134;2022-08-03T15:48:43;9.93;;;9.63;;
3299;SDS011;1662;49.310;8.134;2022-08-03T15:51:09;9.90;;;9.60;;
3299;SDS011;1662;49.310;8.134;2022-08-03T15:53:35;9.83;;;9.60;;
3299;SDS011;1662;49.310;8.134;2022-08-03T15:56:03;10.23;;;9.90;;
3299;SDS011;1662;49.310;8.134;2022-08-03T15:58:31;9.80;;;9.40;;
3299;SDS011;1662;49.310;8.134;2022-08-03T16:00:57;9.80;;;9.57;;
3299;SDS011;1662;49.310;8.134;2022-08-03T16:03:24;10.50;;;10.20;;
3299;SDS011;1662;49.310;8.134;2022-08-03T16:05:52;10.00;;;9.70;;
3299;SDS011;1662;49.310;8.134;2022-08-03T16:08:18;10.20;;;9.90;;
3299;SDS011;1662;49.310;8.134;2022-08-03T16:10:44;10.30;;;9.90;;
3299;SDS011;1662;49.310;8.134;2022-08-03T16:13:11;9.90;;;9.53;;
3299;SDS011;1662;49.310;8.134;2022-08-03T16:15:36;9.80;;;9.50;;
3299;SDS011;1662;49.310;8.134;2022-08-03T16:18:03;10.80;;;10.40;;
3299;SDS011;1662;49.310;8.134;2022-08-03T16:20:29;10.43;;;10.13;;
3299;SDS011;1662;49.310;8.134;2022-08-03T16:22:55;11.00;;;10.27;;
3299;SDS011;1662;49.310;8.134;2022-08-03T16:25:21;10.10;;;9.80;;
3299;SDS011;1662;49.310;8.134;2022-08-03T16:27:49;10.03;;;9.60;;
3299;SDS011;1662;49.310;8.134;2022-08-03T16:30:15;9.53;;;9.20;;
3299;SDS011;1662;49.310;8.134;2022-08-03T16:32:41;9.70;;;9.40;;
3299;SDS011;1662;49.310;8.134;2022-08-03T16:35:11;9.57;;;9.37;;
3299;SDS011;1662;49.310;8.134;2022-08-03T16:37:37;9.50;;;9.20;;
3299;SDS011;1662;49.310;8.134;2022-08-03T16:40:03;9.20;;;8.90;;
3299;SDS011;1662;49.310;8.134;2022-08-03T16:42:32;8.60;;;8.27;;
3299;SDS011;1662;49.310;8.134;2022-08-03T16:44:59;8.40;;;8.20;;
3299;SDS011;1662;49.310;8.134;2022-08-03T16:47:24;9.17;;;8.97;;
3299;SDS011;1662;49.310;8.134;2022-08-03T16:49:53;9.10;;;8.90;;
3299;SDS011;1662;49.310;8.134;2022-08-03T16:52:18;9.03;;;8.83;;
3299;SDS011;1662;49.310;8.134;2022-08-03T16:54:44;8.80;;;8.60;;
3299;SDS011;1662;49.310;8.134;2022-08-03T16:57:10;10.00;;;9.50;;
3299;SDS011;1662;49.310;8.134;2022-08-03T16:59:36;9.50;;;9.00;;
3299;SDS011;1662;49.310;8.134;2022-08-03T17:02:02;9.00;;;8.50;;
3299;SDS011;1662;49.310;8.134;2022-08-03T17:04:29;9.00;;;8.80;;
3299;SDS011;1662;49.310;8.134;2022-08-03T17:06:55;8.80;;;8.50;;
3299;SDS011;1662;49.310;8.134;2022-08-03T17:09:20;8.70;;;8.50;;
3299;SDS011;1662;49.310;8.134;2022-08-03T17:11:47;8.90;;;8.60;;
3299;SDS011;1662;49.310;8.134;2022-08-03T17:14:16;9.20;;;8.90;;
3299;SDS011;1662;49.310;8.134;2022-08-03T17:16:47;8.93;;;8.60;;
3299;SDS011;1662;49.310;8.134;2022-08-03T17:19:14;8.97;;;8.67;;
3299;SDS011;1662;49.310;8.134;2022-08-03T17:21:41;10.07;;;9.67;;
3299;SDS011;1662;49.310;8.134;2022-08-03T17:24:27;9.13;;;8.70;;
3299;SDS011;1662;49.310;8.134;2022-08-03T17:26:57;9.50;;;9.20;;
3299;SDS011;1662;49.310;8.134;2022-08-03T17:29:26;9.20;;;8.97;;
3299;SDS011;1662;49.310;8.134;2022-08-03T17:31:53;9.20;;;8.90;;
3299;SDS011;1662;49.310;8.134;2022-08-03T17:34:20;9.47;;;9.17;;